This is the latest recevied weather packets stored in our database for station/object BV5AB-33. If no packets are shown the sender has not sent any weather packets the latest 10 day(s).
| Time | Temp. | Humidity | Pressure | Rain* | Wind** | Luminosity | Snow |
|---|---|---|---|---|---|---|---|
| 1778142290 | 30.56° C | 58% | 980.8 hPa | 0 mm | - | - | - |
| 1778137190 | 31.11° C | 57% | 980.7 hPa | 0 mm | - | - | - |
| 1778136290 | 31.11° C | 57% | 980.7 hPa | 0 mm | - | - | - |
| 1778135690 | 31.11° C | 57% | 980.7 hPa | 0 mm | - | - | - |
| 1778135391 | 31.11° C | 58% | 980.6 hPa | 0 mm | - | - | - |
| 1778133590 | 31.67° C | 58% | 981 hPa | 0 mm | - | - | - |
| 1778129990 | 31.67° C | 53% | 981.5 hPa | 0 mm | - | - | - |
| 1778122490 | 31.11° C | 54% | 983.1 hPa | 0 mm | - | - | - |
| 1778120991 | 30.56° C | 54% | 983.1 hPa | 0 mm | - | - | - |
| 1778119491 | 30° C | 58% | 983.3 hPa | 0 mm | - | - | - |
| 1778118891 | 30.56° C | 60% | 983.7 hPa | 0 mm | - | - | - |
| 1778116791 | 30° C | 61% | 983.7 hPa | 0 mm | - | - | - |
| 1778111691 | 27.78° C | 66% | 983.8 hPa | 0 mm | - | - | - |
| 1778111391 | 27.22° C | 71% | 983.7 hPa | 0 mm | - | - | - |
| 1778109291 | 26.67° C | 72% | 983.6 hPa | 0 mm | - | - | - |
| 1778108391 | 26.67° C | 73% | 983.7 hPa | 0 mm | - | - | - |
| 1778103891 | 23.33° C | 76% | 982.5 hPa | 15.49 mm | - | - | - |
| 1778102691 | 23.33° C | 80% | 982.4 hPa | 0 mm | - | - | - |
| 1778102091 | 23.33° C | 80% | 982.4 hPa | 0 mm | - | - | - |
| 1778099991 | 23.33° C | 80% | 982.2 hPa | 0 mm | - | - | - |
| 1778099091 | 23.33° C | 80% | 982.2 hPa | 0 mm | - | - | - |
| 1778096091 | 23.33° C | 79% | 981.9 hPa | 0 mm | - | - | - |
| 1778095791 | 23.33° C | 79% | 982 hPa | 0 mm | - | - | - |
| 1778095191 | 23.33° C | 79% | 982.1 hPa | 0 mm | - | - | - |
| 1778091591 | 23.89° C | 77% | 981.8 hPa | 0 mm | - | - | - |
* Rain latest hour (hover to see other rain measurements)
** Current wind speed in m/s (hover to see current wind gust speed)